Time;durP1;ratioP1;P1;durP2;ratioP2;P2;SDS_P1;SDS_P2;PMS_P1;PMS_P2;Temp;Humidity;BMP_temperature;BMP_pressure;BME280_temperature;BME280_humidity;BME280_pressure;Samples;Min_cycle;Max_cycle;Signal;HPM_P1;HPM_P2
2023/09/04 00:00:00;;;;;;;5.83;5.33;;;13.40;99.90;;;;;;5020119;28;20519;-51
2023/09/04 00:02:27;;;;;;;5.13;4.63;;;13.40;99.90;;;;;;5006898;28;20251;-46
2023/09/04 00:04:54;;;;;;;7.43;5.23;;;13.40;99.90;;;;;;5021267;28;20196;-57
2023/09/04 00:07:21;;;;;;;5.20;4.70;;;13.40;99.90;;;;;;5025895;28;20254;-49
2023/09/04 00:09:50;;;;;;;6.43;5.40;;;13.30;99.90;;;;;;5023855;28;20251;-60
2023/09/04 00:12:16;;;;;;;7.50;6.17;;;13.30;99.90;;;;;;5023856;28;20361;-51
2023/09/04 00:14:43;;;;;;;6.10;5.50;;;13.30;99.90;;;;;;5025388;28;20738;-59
2023/09/04 00:17:11;;;;;;;7.90;6.23;;;13.20;99.90;;;;;;5006514;28;20369;-53
2023/09/04 00:19:37;;;;;;;6.07;5.57;;;13.20;99.90;;;;;;5034179;28;20206;-57
2023/09/04 00:22:05;;;;;;;6.23;5.40;;;13.10;99.90;;;;;;5032244;28;20249;-47
2023/09/04 00:24:32;;;;;;;5.73;5.20;;;13.10;99.90;;;;;;5029933;28;20253;-51
2023/09/04 00:27:00;;;;;;;5.90;5.40;;;13.10;99.90;;;;;;5028235;28;20207;-45
2023/09/04 00:29:27;;;;;;;5.80;5.03;;;13.10;99.90;;;;;;5033578;28;20184;-47
2023/09/04 00:31:54;;;;;;;5.47;4.93;;;13.20;99.90;;;;;;5024677;28;20274;-59
2023/09/04 00:34:21;;;;;;;5.80;5.20;;;13.30;99.90;;;;;;5006224;28;20216;-48
2023/09/04 00:36:47;;;;;;;7.10;5.57;;;13.20;99.90;;;;;;5026661;28;20211;-59
2023/09/04 00:39:14;;;;;;;5.53;5.03;;;13.20;99.90;;;;;;5026190;28;20195;-51
2023/09/04 00:41:41;;;;;;;5.77;5.20;;;13.10;99.90;;;;;;5031774;28;20211;-57
2023/09/04 00:44:10;;;;;;;8.43;5.37;;;13.10;99.90;;;;;;5017613;28;20202;-54
2023/09/04 00:46:37;;;;;;;6.60;5.87;;;13.00;99.90;;;;;;5028299;28;20250;-59
2023/09/04 00:49:04;;;;;;;5.93;5.43;;;13.00;99.90;;;;;;5005361;28;20211;-47
2023/09/04 00:51:31;;;;;;;6.37;5.80;;;13.00;99.90;;;;;;5025551;28;20200;-46
2023/09/04 00:53:58;;;;;;;6.60;5.67;;;12.90;99.90;;;;;;5025322;28;20262;-48
2023/09/04 00:56:25;;;;;;;6.73;6.13;;;12.90;99.90;;;;;;5026986;28;20215;-50
2023/09/04 00:58:53;;;;;;;5.93;5.43;;;12.90;99.90;;;;;;5023405;28;20192;-57
2023/09/04 01:01:22;;;;;;;5.43;4.83;;;12.90;99.90;;;;;;5023180;28;20204;-48
2023/09/04 01:03:49;;;;;;;7.73;5.73;;;12.90;99.90;;;;;;5021408;28;20270;-58
2023/09/04 01:06:16;;;;;;;6.87;5.10;;;12.90;99.90;;;;;;5006627;28;20779;-48
2023/09/04 01:08:43;;;;;;;6.23;5.50;;;12.90;99.90;;;;;;5021482;28;20297;-58
2023/09/04 01:11:16;;;;;;;6.43;5.93;;;12.90;99.90;;;;;;5021260;28;20899;-50
2023/09/04 01:13:47;;;;;;;6.07;5.47;;;12.80;99.90;;;;;;5020313;28;20269;-57
2023/09/04 01:16:15;;;;;;;6.50;5.30;;;12.80;99.90;;;;;;5021945;28;20219;-45
2023/09/04 01:18:44;;;;;;;5.90;5.30;;;12.80;99.90;;;;;;5020701;28;20196;-59
2023/09/04 01:21:12;;;;;;;7.90;6.50;;;12.70;99.90;;;;;;5006172;28;20590;-49
2023/09/04 01:23:38;;;;;;;7.00;6.20;;;12.70;99.90;;;;;;5026003;28;20188;-58
2023/09/04 01:26:11;;;;;;;6.07;5.47;;;12.70;99.90;;;;;;5035450;28;20227;-52
2023/09/04 01:28:44;;;;;;;6.83;5.83;;;12.70;99.90;;;;;;5028377;28;20247;-60
2023/09/04 01:31:16;;;;;;;5.70;5.13;;;12.60;99.90;;;;;;5031844;28;20200;-48
2023/09/04 01:33:48;;;;;;;6.63;5.03;;;12.60;99.90;;;;;;5019825;28;20222;-58
2023/09/04 01:36:17;;;;;;;6.00;5.37;;;12.50;99.90;;;;;;5012951;28;20719;-52
2023/09/04 01:38:46;;;;;;;5.23;4.80;;;12.50;99.90;;;;;;5028210;28;20199;-61
2023/09/04 01:41:13;;;;;;;5.67;5.03;;;12.50;99.90;;;;;;5034261;28;21048;-51
2023/09/04 01:43:39;;;;;;;6.37;5.10;;;12.50;99.90;;;;;;5034564;28;20546;-59
2023/09/04 01:46:06;;;;;;;5.77;4.93;;;12.50;99.90;;;;;;5029812;28;20276;-51
2023/09/04 01:48:34;;;;;;;5.70;4.90;;;12.50;99.90;;;;;;5039559;28;20596;-46
2023/09/04 01:51:01;;;;;;;4.57;4.17;;;12.50;99.90;;;;;;5014011;28;20214;-48
2023/09/04 01:53:29;;;;;;;6.07;5.47;;;12.50;99.90;;;;;;5033164;28;20222;-50
2023/09/04 01:55:58;;;;;;;5.60;4.93;;;12.40;99.90;;;;;;5026657;28;21042;-55
2023/09/04 01:58:25;;;;;;;8.20;5.70;;;12.40;99.90;;;;;;5037681;28;20211;-48
2023/09/04 02:00:53;;;;;;;5.17;4.77;;;12.30;99.90;;;;;;5031853;28;20282;-60
2023/09/04 02:03:19;;;;;;;6.30;5.70;;;12.30;99.90;;;;;;5037832;28;20188;-48
2023/09/04 02:05:46;;;;;;;5.83;5.33;;;12.30;99.90;;;;;;5037454;28;20215;-59
2023/09/04 02:08:13;;;;;;;5.63;5.07;;;12.30;99.90;;;;;;5009376;28;20200;-48
2023/09/04 02:10:41;;;;;;;5.77;5.27;;;12.20;99.90;;;;;;5032973;28;20257;-58
2023/09/04 02:13:08;;;;;;;5.67;5.17;;;12.20;99.90;;;;;;5036185;28;20211;-50
2023/09/04 02:15:37;;;;;;;6.20;5.37;;;12.20;99.90;;;;;;5035809;28;20215;-53
2023/09/04 02:18:04;;;;;;;5.57;5.03;;;12.20;99.90;;;;;;5037131;28;20590;-52
2023/09/04 02:20:31;;;;;;;5.53;5.03;;;12.10;99.90;;;;;;5041817;28;20261;-48
2023/09/04 02:22:59;;;;;;;5.60;5.20;;;12.10;99.90;;;;;;5007615;28;20896;-51
2023/09/04 02:25:26;;;;;;;5.53;4.67;;;12.00;99.90;;;;;;5040664;28;20282;-50
2023/09/04 02:27:56;;;;;;;5.77;4.30;;;12.00;99.90;;;;;;5022592;28;20192;-47
2023/09/04 02:30:22;;;;;;;6.33;4.40;;;12.10;99.90;;;;;;5026105;28;20196;-49
2023/09/04 02:32:49;;;;;;;7.67;4.70;;;12.10;99.90;;;;;;5022542;28;20760;-59
2023/09/04 02:35:16;;;;;;;5.37;4.50;;;12.10;99.90;;;;;;5032432;28;20368;-47
2023/09/04 02:37:44;;;;;;;5.63;4.93;;;12.10;99.90;;;;;;5000818;28;20270;-61
2023/09/04 02:40:13;;;;;;;6.40;4.60;;;12.10;99.90;;;;;;5024000;28;20249;-48
2023/09/04 02:42:39;;;;;;;5.03;4.53;;;12.00;99.90;;;;;;5032668;28;20601;-58
2023/09/04 02:45:09;;;;;;;4.80;4.30;;;12.00;99.90;;;;;;5025549;28;20916;-49
2023/09/04 02:47:37;;;;;;;5.30;4.80;;;12.00;99.90;;;;;;5033665;28;20195;-57
2023/09/04 02:50:05;;;;;;;6.20;4.77;;;12.00;99.90;;;;;;5028872;28;20188;-54
2023/09/04 02:52:32;;;;;;;5.97;4.93;;;12.00;99.90;;;;;;5030485;28;20303;-49
2023/09/04 02:54:59;;;;;;;4.90;4.40;;;12.00;99.90;;;;;;5009438;28;20187;-46
2023/09/04 02:57:26;;;;;;;4.70;4.03;;;12.00;99.90;;;;;;5032696;28;20231;-47
2023/09/04 02:59:53;;;;;;;6.73;5.43;;;12.00;99.90;;;;;;5028581;28;20576;-57
2023/09/04 03:02:21;;;;;;;5.43;4.93;;;12.00;99.90;;;;;;5029635;28;20196;-50
2023/09/04 03:04:54;;;;;;;6.07;4.97;;;12.00;99.90;;;;;;5028363;28;20193;-58
2023/09/04 03:07:21;;;;;;;6.40;5.80;;;12.00;99.90;;;;;;5030315;28;20208;-50
2023/09/04 03:09:48;;;;;;;5.93;5.30;;;12.00;99.90;;;;;;5013324;28;20199;-57
2023/09/04 03:12:15;;;;;;;7.10;5.27;;;12.00;99.90;;;;;;5032217;28;20199;-51
2023/09/04 03:14:42;;;;;;;6.43;5.83;;;12.00;99.90;;;;;;5033842;28;20908;-59
2023/09/04 03:17:08;;;;;;;7.10;6.40;;;12.00;99.90;;;;;;5029831;28;20187;-50
2023/09/04 03:19:37;;;;;;;6.87;6.23;;;12.00;99.90;;;;;;5034816;28;20206;-52
2023/09/04 03:22:04;;;;;;;7.03;6.03;;;12.00;99.90;;;;;;5029821;28;20199;-48
2023/09/04 03:24:30;;;;;;;7.80;6.20;;;12.00;99.90;;;;;;5013573;28;20208;-52
2023/09/04 03:26:58;;;;;;;7.43;6.30;;;12.00;99.90;;;;;;5028773;28;20238;-50
2023/09/04 03:29:26;;;;;;;7.10;6.37;;;12.00;99.90;;;;;;5028570;28;20199;-48
2023/09/04 03:31:53;;;;;;;6.27;5.77;;;11.90;99.90;;;;;;5022373;28;20196;-51
2023/09/04 03:34:20;;;;;;;9.07;5.90;;;11.90;99.90;;;;;;5030726;28;20224;-47
2023/09/04 03:36:48;;;;;;;6.40;5.90;;;12.00;99.90;;;;;;5024522;28;20212;-57
2023/09/04 03:39:15;;;;;;;5.60;5.20;;;11.90;99.90;;;;;;5028608;28;20192;-48
2023/09/04 03:41:42;;;;;;;6.00;5.50;;;11.90;99.90;;;;;;5007398;28;20200;-59
2023/09/04 03:44:09;;;;;;;6.13;5.53;;;11.90;99.90;;;;;;5021755;28;20195;-54
2023/09/04 03:46:35;;;;;;;6.03;5.43;;;11.90;99.90;;;;;;5028722;28;20281;-55
2023/09/04 03:49:02;;;;;;;6.20;5.60;;;11.80;99.90;;;;;;5026231;28;20181;-52
2023/09/04 03:51:30;;;;;;;6.37;5.57;;;11.80;99.90;;;;;;5029190;28;20203;-50
2023/09/04 03:54:01;;;;;;;5.80;5.30;;;11.90;99.90;;;;;;5032442;28;20253;-49
2023/09/04 03:56:29;;;;;;;6.50;5.40;;;11.80;99.90;;;;;;5011345;28;20223;-50
2023/09/04 03:58:56;;;;;;;6.33;4.90;;;11.80;99.90;;;;;;5022204;28;20211;-48
2023/09/04 04:01:23;;;;;;;7.03;5.77;;;11.80;99.90;;;;;;5011874;28;20216;-60
2023/09/04 04:03:50;;;;;;;6.10;5.30;;;11.70;99.90;;;;;;5026371;28;20188;-46
2023/09/04 04:06:18;;;;;;;6.03;5.43;;;11.70;99.90;;;;;;5027772;28;20223;-60
2023/09/04 04:08:46;;;;;;;6.30;4.37;;;11.60;99.90;;;;;;5026880;28;20957;-50
2023/09/04 04:11:14;;;;;;;4.67;4.27;;;11.60;99.90;;;;;;5024716;28;20208;-61
2023/09/04 04:13:41;;;;;;;3.70;3.40;;;11.60;99.90;;;;;;5009253;28;20215;-46
2023/09/04 04:16:11;;;;;;;4.67;4.23;;;11.60;99.90;;;;;;5022301;28;20211;-58
2023/09/04 04:18:37;;;;;;;4.90;4.50;;;11.50;99.90;;;;;;5023657;28;20199;-53
2023/09/04 04:21:06;;;;;;;4.80;4.30;;;11.50;99.90;;;;;;5021527;28;20196;-52
2023/09/04 04:23:34;;;;;;;4.87;4.27;;;11.50;99.90;;;;;;5023338;28;20324;-50
2023/09/04 04:26:03;;;;;;;3.93;3.63;;;11.50;99.90;;;;;;5017740;28;20651;-60
2023/09/04 04:28:31;;;;;;;3.97;3.67;;;11.50;99.90;;;;;;5005644;28;20204;-50
2023/09/04 04:31:01;;;;;;;4.27;3.97;;;11.60;99.90;;;;;;5020685;28;21132;-50
2023/09/04 04:33:29;;;;;;;3.87;3.63;;;11.50;99.90;;;;;;5027216;28;20204;-58
2023/09/04 04:35:57;;;;;;;4.33;3.80;;;11.50;99.90;;;;;;5017181;28;20220;-51
2023/09/04 04:38:24;;;;;;;4.30;3.97;;;11.50;99.90;;;;;;5028466;28;20199;-52
2023/09/04 04:40:51;;;;;;;5.00;4.60;;;11.50;99.90;;;;;;5029407;28;20189;-45
2023/09/04 04:43:18;;;;;;;4.80;4.30;;;11.50;99.90;;;;;;4996016;28;20212;-50
2023/09/04 04:45:48;;;;;;;3.93;3.63;;;11.50;99.90;;;;;;5011977;28;20204;-50
2023/09/04 04:48:16;;;;;;;5.70;4.90;;;11.50;99.90;;;;;;5015511;28;20211;-50
2023/09/04 04:50:43;;;;;;;4.23;3.93;;;11.60;99.90;;;;;;5020749;28;20250;-47
2023/09/04 04:53:10;;;;;;;4.87;4.30;;;11.60;99.90;;;;;;5017546;28;20255;-53
2023/09/04 04:55:37;;;;;;;5.10;4.70;;;11.60;99.90;;;;;;5014190;28;20561;-55
2023/09/04 04:58:05;;;;;;;5.53;4.93;;;11.60;99.90;;;;;;4996132;28;20214;-55
2023/09/04 05:00:32;;;;;;;6.30;5.67;;;11.60;99.90;;;;;;5022480;28;20192;-49
2023/09/04 05:03:00;;;;;;;6.83;6.13;;;11.70;99.90;;;;;;5012672;28;20199;-54
2023/09/04 05:05:27;;;;;;;6.30;5.57;;;11.70;99.90;;;;;;5017424;28;20215;-48
2023/09/04 05:07:54;;;;;;;6.67;5.97;;;11.70;99.90;;;;;;5013531;28;20301;-55
2023/09/04 05:10:21;;;;;;;7.07;6.47;;;11.70;99.90;;;;;;5017378;28;20204;-55
2023/09/04 05:12:48;;;;;;;7.90;6.03;;;11.70;99.90;;;;;;5018842;28;20306;-57
2023/09/04 05:15:15;;;;;;;7.17;6.47;;;11.80;99.90;;;;;;5008686;28;20224;-56
2023/09/04 05:17:42;;;;;;;8.50;6.17;;;11.80;99.90;;;;;;5038387;28;20210;-54
2023/09/04 05:20:11;;;;;;;6.70;6.10;;;11.80;99.90;;;;;;5014004;28;20187;-53
2023/09/04 05:22:38;;;;;;;8.23;7.07;;;11.80;99.90;;;;;;5021532;28;20343;-53
2023/09/04 05:25:06;;;;;;;8.67;7.77;;;11.80;99.90;;;;;;5016188;28;20803;-51
2023/09/04 05:27:33;;;;;;;8.90;7.20;;;11.80;99.90;;;;;;5027676;28;20188;-52
2023/09/04 05:29:59;;;;;;;9.07;6.80;;;11.90;99.90;;;;;;5010166;28;20203;-58
2023/09/04 05:32:26;;;;;;;10.53;6.57;;;11.90;99.90;;;;;;5033570;28;20208;-52
2023/09/04 05:34:53;;;;;;;7.93;7.03;;;12.00;99.90;;;;;;5018473;28;20220;-56
2023/09/04 05:37:22;;;;;;;7.60;6.90;;;12.10;99.90;;;;;;5019215;28;20232;-52
2023/09/04 05:39:49;;;;;;;9.67;7.30;;;12.10;99.90;;;;;;5013421;28;20264;-54
2023/09/04 05:42:16;;;;;;;8.07;7.27;;;12.10;99.90;;;;;;5022368;28;20204;-50
2023/09/04 05:44:43;;;;;;;9.47;7.17;;;12.10;99.90;;;;;;5013748;28;20222;-54
2023/09/04 05:47:09;;;;;;;10.13;7.90;;;12.20;99.90;;;;;;5024731;28;20220;-51
2023/09/04 05:49:37;;;;;;;11.20;7.93;;;12.20;99.90;;;;;;5018019;28;20258;-56
2023/09/04 05:52:04;;;;;;;8.83;7.50;;;12.20;99.90;;;;;;5014615;28;20231;-46
2023/09/04 05:54:32;;;;;;;8.07;7.27;;;12.30;99.90;;;;;;5015786;28;20216;-56
2023/09/04 05:56:59;;;;;;;8.13;7.23;;;12.30;99.90;;;;;;5021434;28;20211;-54
2023/09/04 05:59:26;;;;;;;8.93;7.83;;;12.40;99.90;;;;;;5019637;28;20208;-57
2023/09/04 06:01:53;;;;;;;7.90;6.97;;;12.50;99.90;;;;;;5007902;28;20204;-52
2023/09/04 06:04:20;;;;;;;8.03;5.93;;;12.50;99.90;;;;;;5028223;28;20541;-52
2023/09/04 06:06:47;;;;;;;7.20;6.50;;;12.60;99.90;;;;;;5017082;28;20239;-51
2023/09/04 06:09:14;;;;;;;8.03;5.83;;;12.70;99.90;;;;;;5023034;28;20250;-53
2023/09/04 06:11:42;;;;;;;5.70;5.13;;;12.70;99.90;;;;;;5012970;28;20207;-58
2023/09/04 06:14:10;;;;;;;8.80;6.80;;;12.80;99.90;;;;;;5021348;28;20212;-46
2023/09/04 06:16:37;;;;;;;8.37;6.83;;;12.90;99.90;;;;;;5006575;28;20228;-57
2023/09/04 06:19:04;;;;;;;6.70;6.00;;;13.00;99.90;;;;;;5022807;28;20662;-50
2023/09/04 06:21:31;;;;;;;8.87;7.97;;;13.00;99.90;;;;;;5014292;28;20212;-57
2023/09/04 06:23:57;;;;;;;9.80;6.60;;;13.10;99.90;;;;;;5019535;28;20253;-48
2023/09/04 06:26:24;;;;;;;9.63;8.63;;;13.20;99.90;;;;;;5022385;28;20215;-55
2023/09/04 06:28:53;;;;;;;9.10;7.20;;;13.40;99.90;;;;;;5017793;28;20200;-46
2023/09/04 06:31:21;;;;;;;11.07;9.20;;;13.40;99.90;;;;;;5006259;28;20298;-53
2023/09/04 06:33:48;;;;;;;13.00;10.80;;;13.50;99.90;;;;;;5024655;28;20212;-48
2023/09/04 06:36:15;;;;;;;12.73;9.60;;;13.60;99.90;;;;;;5018371;28;20290;-54
2023/09/04 06:38:42;;;;;;;12.53;10.40;;;13.70;99.90;;;;;;5013709;28;20198;-49
2023/09/04 06:41:09;;;;;;;9.43;8.50;;;13.80;99.90;;;;;;5020047;28;20254;-49
2023/09/04 06:43:35;;;;;;;17.13;13.13;;;14.00;99.90;;;;;;5017971;28;20314;-48
2023/09/04 06:46:04;;;;;;;17.17;12.93;;;14.00;99.90;;;;;;5027788;28;20313;-46
2023/09/04 06:48:31;;;;;;;14.70;10.77;;;14.20;99.90;;;;;;5006465;28;20199;-50
2023/09/04 06:50:59;;;;;;;10.77;9.70;;;14.30;99.90;;;;;;5029179;28;20199;-50
2023/09/04 06:53:26;;;;;;;13.47;11.67;;;14.40;99.90;;;;;;5020843;28;20207;-57
2023/09/04 06:55:53;;;;;;;13.60;11.90;;;14.50;99.90;;;;;;5028738;28;20227;-48
2023/09/04 06:58:20;;;;;;;13.17;11.33;;;14.70;99.90;;;;;;5024764;28;20212;-60
2023/09/04 07:00:47;;;;;;;15.00;11.93;;;14.80;99.90;;;;;;5016880;28;20330;-51
2023/09/04 07:03:15;;;;;;;15.23;11.10;;;15.10;99.90;;;;;;5008744;28;20258;-60
2023/09/04 07:05:42;;;;;;;11.77;10.00;;;15.20;99.90;;;;;;5007407;28;20269;-51
2023/09/04 07:08:08;;;;;;;11.53;10.37;;;15.30;99.90;;;;;;5016954;28;20219;-46
2023/09/04 07:10:36;;;;;;;9.87;8.67;;;15.40;99.90;;;;;;5018371;28;23321;-54
2023/09/04 07:13:04;;;;;;;11.30;9.43;;;15.50;99.90;;;;;;5021197;28;20218;-47
2023/09/04 07:15:30;;;;;;;10.57;8.60;;;15.50;99.90;;;;;;5016358;28;20219;-48
2023/09/04 07:17:59;;;;;;;13.30;10.03;;;15.60;99.90;;;;;;5001321;28;20737;-47
2023/09/04 07:20:28;;;;;;;11.00;9.20;;;15.70;99.90;;;;;;5024660;28;20203;-61
2023/09/04 07:22:55;;;;;;;12.23;7.60;;;15.80;99.90;;;;;;5021149;28;20203;-49
2023/09/04 07:25:22;;;;;;;9.77;7.83;;;15.90;99.90;;;;;;5014566;28;20220;-54
2023/09/04 07:27:48;;;;;;;8.63;7.60;;;16.00;99.90;;;;;;5011826;28;20199;-50
2023/09/04 07:30:17;;;;;;;11.47;7.90;;;16.10;99.90;;;;;;5002797;28;20269;-53
2023/09/04 07:32:44;;;;;;;7.17;6.50;;;16.30;99.90;;;;;;5015704;28;20227;-55
2023/09/04 07:35:11;;;;;;;7.23;6.57;;;16.40;99.90;;;;;;5000492;28;20593;-55
2023/09/04 07:37:39;;;;;;;7.10;6.03;;;16.50;99.90;;;;;;5016778;28;20963;-58
2023/09/04 07:40:08;;;;;;;4.93;4.40;;;16.60;99.90;;;;;;5009680;28;20228;-54
2023/09/04 07:42:36;;;;;;;6.50;5.77;;;16.60;99.90;;;;;;4999751;28;20214;-51
2023/09/04 07:45:04;;;;;;;9.10;7.43;;;16.70;99.90;;;;;;5016787;28;20313;-57
2023/09/04 07:47:31;;;;;;;7.97;7.27;;;16.70;99.90;;;;;;5012830;28;21266;-54
2023/09/04 07:49:58;;;;;;;8.50;6.63;;;16.90;99.90;;;;;;5003825;28;20228;-54
2023/09/04 07:52:25;;;;;;;8.30;6.63;;;17.10;99.90;;;;;;5012576;28;21024;-51
2023/09/04 07:54:54;;;;;;;7.13;6.40;;;17.20;99.90;;;;;;5021982;28;20215;-49
2023/09/04 07:57:21;;;;;;;6.47;5.83;;;17.30;99.90;;;;;;5002054;28;20211;-58
2023/09/04 07:59:51;;;;;;;4.43;3.73;;;17.50;99.90;;;;;;5023180;28;20909;-51
2023/09/04 08:02:18;;;;;;;5.50;5.00;;;17.50;99.90;;;;;;5016658;28;20655;-57
2023/09/04 08:04:46;;;;;;;7.20;5.47;;;17.60;99.90;;;;;;4999953;28;20211;-56
2023/09/04 08:07:15;;;;;;;5.83;5.07;;;17.70;99.90;;;;;;5024375;28;20207;-57
2023/09/04 08:09:44;;;;;;;4.20;3.90;;;17.80;99.90;;;;;;5017946;28;20528;-54
2023/09/04 08:12:13;;;;;;;4.60;4.20;;;17.90;99.90;;;;;;5011583;28;20219;-57
2023/09/04 08:14:41;;;;;;;5.57;3.90;;;18.00;99.90;;;;;;5022336;28;20841;-53
2023/09/04 08:17:08;;;;;;;5.00;4.60;;;18.10;99.90;;;;;;5016954;28;20286;-57
2023/09/04 08:19:36;;;;;;;5.33;4.37;;;18.10;99.90;;;;;;5015399;28;20272;-49
2023/09/04 08:22:04;;;;;;;5.17;4.37;;;18.20;99.90;;;;;;4997411;28;20206;-54
2023/09/04 08:24:35;;;;;;;4.43;3.90;;;18.30;99.90;;;;;;5022286;28;20184;-49
2023/09/04 08:27:02;;;;;;;3.70;3.40;;;18.40;99.90;;;;;;5017849;28;20247;-49
2023/09/04 08:29:35;;;;;;;4.47;3.80;;;18.40;99.90;;;;;;5013959;28;20287;-52
2023/09/04 08:32:06;;;;;;;3.70;3.33;;;18.50;99.90;;;;;;5017123;28;20196;-56
2023/09/04 08:34:34;;;;;;;3.10;2.57;;;18.60;99.90;;;;;;5017961;28;20247;-54
2023/09/04 08:37:02;;;;;;;4.53;3.23;;;18.60;99.90;;;;;;5003187;28;20230;-55
2023/09/04 08:39:30;;;;;;;3.07;2.77;;;18.70;99.90;;;;;;5022241;28;20192;-58
2023/09/04 08:42:02;;;;;;;2.23;2.03;;;18.80;99.90;;;;;;5018264;28;20372;-59
2023/09/04 08:44:31;;;;;;;3.03;2.00;;;19.00;99.90;;;;;;5013337;28;20422;-59
2023/09/04 08:47:01;;;;;;;2.70;2.50;;;19.10;99.90;;;;;;5027413;28;20699;-60
2023/09/04 08:49:29;;;;;;;2.93;2.10;;;19.20;99.90;;;;;;5005895;28;20204;-59
2023/09/04 08:51:57;;;;;;;1.97;1.80;;;19.30;99.90;;;;;;5019934;28;20204;-56
2023/09/04 08:54:28;;;;;;;2.97;2.20;;;19.30;99.90;;;;;;5004631;28;20207;-58
2023/09/04 08:56:57;;;;;;;3.70;2.20;;;19.40;99.90;;;;;;5022120;28;20611;-59
2023/09/04 08:59:25;;;;;;;4.40;2.40;;;19.40;99.90;;;;;;5020410;28;20191;-59
2023/09/04 09:02:02;;;;;;;5.20;2.10;;;19.50;99.90;;;;;;5021828;28;20565;-56
2023/09/04 09:04:32;;;;;;;2.60;2.40;;;19.60;99.90;;;;;;5006443;28;21983;-58
2023/09/04 09:07:03;;;;;;;3.57;2.50;;;19.70;99.90;;;;;;5027210;28;20287;-58
2023/09/04 09:09:31;;;;;;;3.67;2.20;;;19.70;99.90;;;;;;5008484;28;20200;-59
2023/09/04 09:11:59;;;;;;;2.60;2.20;;;19.70;99.90;;;;;;5028142;28;20215;-58
2023/09/04 09:14:28;;;;;;;2.57;2.37;;;19.80;99.90;;;;;;5020876;28;21000;-54
2023/09/04 09:17:04;;;;;;;2.70;2.10;;;19.80;99.90;;;;;;5022962;28;20234;-58
2023/09/04 09:19:34;;;;;;;3.33;1.87;;;19.80;99.90;;;;;;5018358;28;20950;-57
2023/09/04 09:22:11;;;;;;;3.70;2.20;;;19.90;99.90;;;;;;5012381;28;21007;-58
2023/09/04 09:24:51;;;;;;;2.13;2.03;;;20.10;99.90;;;;;;5014977;28;20294;-58
2023/09/04 09:27:20;;;;;;;2.57;2.00;;;20.20;99.90;;;;;;5020108;28;20326;-57
2023/09/04 09:29:49;;;;;;;1.30;1.20;;;20.20;99.90;;;;;;5028253;28;20239;-53
2023/09/04 09:32:18;;;;;;;1.43;1.30;;;20.30;99.90;;;;;;5024726;28;20228;-55
2023/09/04 09:34:55;;;;;;;1.77;1.67;;;20.50;99.90;;;;;;5027607;28;20318;-53
2023/09/04 09:37:24;;;;;;;1.47;1.30;;;20.50;99.90;;;;;;5027326;28;20295;-52
2023/09/04 09:39:53;;;;;;;2.60;1.00;;;20.50;99.90;;;;;;5005211;28;20219;-51
2023/09/04 09:42:24;;;;;;;1.23;1.10;;;20.40;99.90;;;;;;5039421;28;20294;-56
2023/09/04 09:44:54;;;;;;;1.50;1.30;;;20.50;99.90;;;;;;5017411;28;20200;-51
2023/09/04 09:47:23;;;;;;;1.40;1.30;;;20.50;99.90;;;;;;5021158;28;20559;-53
2023/09/04 09:49:55;;;;;;;1.43;1.37;;;20.60;99.90;;;;;;5027121;28;20204;-51
2023/09/04 09:52:23;;;;;;;2.07;1.20;;;20.60;99.90;;;;;;5018540;28;20195;-54
2023/09/04 09:54:58;;;;;;;1.43;1.33;;;20.70;99.90;;;;;;5004950;28;20204;-54
2023/09/04 09:57:32;;;;;;;2.30;1.70;;;20.70;99.90;;;;;;5025467;28;20200;-56
2023/09/04 10:00:02;;;;;;;2.17;1.50;;;20.70;99.90;;;;;;5017867;28;20685;-49
2023/09/04 10:02:32;;;;;;;1.40;1.30;;;20.80;99.90;;;;;;5019571;28;20212;-57
2023/09/04 10:05:09;;;;;;;4.87;1.43;;;20.90;99.90;;;;;;5019570;28;20582;-54
2023/09/04 10:07:38;;;;;;;2.43;1.50;;;20.90;99.90;;;;;;5016632;28;20199;-54
2023/09/04 10:10:11;;;;;;;3.10;1.50;;;21.00;99.90;;;;;;5001714;28;20204;-52
2023/09/04 10:12:44;;;;;;;2.63;1.60;;;21.10;99.90;;;;;;5024281;28;20202;-54
2023/09/04 10:15:14;;;;;;;2.05;1.15;;;21.10;99.90;;;;;;5020606;28;20889;-57
2023/09/04 10:17:47;;;;;;;1.80;1.10;;;21.10;99.90;;;;;;5020683;28;20231;-55
2023/09/04 10:20:16;;;;;;;2.28;1.00;;;21.20;99.90;;;;;;5018096;28;20196;-54
2023/09/04 10:22:47;;;;;;;1.27;1.17;;;21.20;99.90;;;;;;5008002;28;20212;-55
2023/09/04 10:25:27;;;;;;;2.63;1.23;;;21.30;99.90;;;;;;5022710;28;20226;-47
2023/09/04 10:28:04;;;;;;;1.02;0.93;;;21.40;99.90;;;;;;5012520;28;20282;-54
2023/09/04 10:30:40;;;;;;;1.00;1.00;;;21.40;99.90;;;;;;5000063;28;20214;-57
2023/09/04 10:33:07;;;;;;;1.10;1.00;;;21.40;99.90;;;;;;5015391;28;20713;-53
2023/09/04 10:35:37;;;;;;;1.95;1.40;;;21.40;99.90;;;;;;5016824;28;20239;-57
2023/09/04 10:38:06;;;;;;;3.55;1.40;;;21.50;99.90;;;;;;5004937;28;20674;-48
2023/09/04 10:40:36;;;;;;;2.65;1.60;;;21.60;99.90;;;;;;5022281;28;20204;-55
2023/09/04 10:43:04;;;;;;;1.70;1.60;;;21.70;99.90;;;;;;4997310;28;20200;-49
2023/09/04 10:45:33;;;;;;;4.47;2.15;;;21.70;99.90;;;;;;5015191;28;20224;-56
2023/09/04 10:48:01;;;;;;;1.67;1.58;;;21.70;99.90;;;;;;5013627;28;20549;-49
2023/09/04 10:50:29;;;;;;;1.65;1.40;;;21.60;99.90;;;;;;5017660;28;20866;-57
2023/09/04 10:53:00;;;;;;;1.25;1.10;;;21.60;99.90;;;;;;5010717;28;20200;-48
2023/09/04 10:55:29;;;;;;;1.50;1.40;;;21.70;99.90;;;;;;5025388;28;20228;-58
2023/09/04 10:57:59;;;;;;;1.95;1.00;;;21.80;99.90;;;;;;5010349;28;20206;-49
2023/09/04 11:00:32;;;;;;;1.55;1.45;;;21.80;99.90;;;;;;5016708;28;20849;-52
2023/09/04 11:03:15;;;;;;;2.58;1.35;;;21.80;99.90;;;;;;5013448;28;20207;-50
2023/09/04 11:06:20;;;;;;;4.10;1.50;;;21.90;99.90;;;;;;5019783;28;20290;-58
2023/09/04 11:08:56;;;;;;;1.17;1.00;;;22.00;99.90;;;;;;5008824;28;20570;-56
2023/09/04 11:11:31;;;;;;;1.77;1.02;;;22.10;99.90;;;;;;5015580;28;20199;-55
2023/09/04 11:14:03;;;;;;;1.05;1.05;;;22.10;99.90;;;;;;4999920;28;20239;-50
2023/09/04 11:16:40;;;;;;;1.80;1.13;;;22.10;99.90;;;;;;5013928;28;20216;-52
2023/09/04 11:19:11;;;;;;;2.15;1.05;;;22.30;99.90;;;;;;5014160;28;20686;-55
2023/09/04 11:21:45;;;;;;;1.88;1.77;;;22.30;99.90;;;;;;5013245;28;20199;-53
2023/09/04 11:24:14;;;;;;;3.85;1.60;;;22.40;99.90;;;;;;5012014;28;20208;-51
2023/09/04 11:26:42;;;;;;;1.55;1.35;;;22.30;99.90;;;;;;5017862;28;20212;-55
2023/09/04 11:29:10;;;;;;;1.30;1.20;;;22.40;99.90;;;;;;5010955;28;20208;-52
2023/09/04 11:31:43;;;;;;;1.80;1.30;;;22.40;99.90;;;;;;5015195;28;20277;-51
2023/09/04 11:34:11;;;;;;;1.30;1.20;;;22.50;99.90;;;;;;5013509;28;20219;-54
2023/09/04 11:36:41;;;;;;;1.95;1.13;;;22.50;99.90;;;;;;5020832;28;20760;-51
2023/09/04 11:39:12;;;;;;;1.67;1.35;;;22.60;99.90;;;;;;5007966;28;20275;-51
2023/09/04 11:41:42;;;;;;;2.65;1.67;;;22.50;99.90;;;;;;5019885;28;20290;-53
2023/09/04 11:44:10;;;;;;;2.75;1.17;;;22.60;99.90;;;;;;5005091;28;20339;-56
2023/09/04 11:46:37;;;;;;;3.40;1.58;;;22.60;99.90;;;;;;5020252;28;20300;-52
2023/09/04 11:49:04;;;;;;;3.05;1.23;;;22.80;99.90;;;;;;5005725;28;20234;-50
2023/09/04 11:51:32;;;;;;;2.65;1.30;;;22.80;99.90;;;;;;5023765;28;20256;-51
2023/09/04 11:53:59;;;;;;;1.98;1.65;;;22.90;99.90;;;;;;5012920;28;20215;-51
2023/09/04 11:56:26;;;;;;;2.08;1.52;;;23.00;99.90;;;;;;5020407;28;20288;-48
2023/09/04 11:58:56;;;;;;;3.92;1.40;;;22.90;99.90;;;;;;5026904;28;20303;-50
2023/09/04 12:01:23;;;;;;;1.67;1.38;;;22.80;99.90;;;;;;4996115;28;20212;-51
2023/09/04 12:03:52;;;;;;;4.50;1.60;;;22.90;99.90;;;;;;5015916;28;20674;-52
2023/09/04 12:06:20;;;;;;;2.83;1.73;;;23.00;99.90;;;;;;5020291;28;21042;-55
2023/09/04 12:08:47;;;;;;;4.03;1.63;;;23.10;99.90;;;;;;5022214;28;20200;-51
2023/09/04 12:11:14;;;;;;;2.25;1.50;;;23.30;99.90;;;;;;5013654;28;20211;-54
2023/09/04 12:13:40;;;;;;;2.97;1.73;;;23.40;99.90;;;;;;5026664;28;20250;-55
2023/09/04 12:16:09;;;;;;;1.67;1.58;;;23.30;99.90;;;;;;4991622;28;20759;-49
2023/09/04 12:18:37;;;;;;;3.28;2.00;;;23.30;99.90;;;;;;5013931;28;20211;-55
2023/09/04 12:21:08;;;;;;;3.55;1.50;;;23.40;99.90;;;;;;5010586;28;20270;-54
2023/09/04 12:23:43;;;;;;;1.50;0.90;;;23.40;99.90;;;;;;5017922;28;20207;-52
2023/09/04 12:26:12;;;;;;;3.20;1.48;;;23.50;99.90;;;;;;5002882;28;20223;-54
2023/09/04 12:28:39;;;;;;;2.33;1.48;;;23.60;99.90;;;;;;5020406;28;20283;-51
2023/09/04 12:31:09;;;;;;;1.58;1.35;;;23.70;99.90;;;;;;4998421;28;20243;-50
2023/09/04 12:33:41;;;;;;;2.38;1.40;;;23.80;99.90;;;;;;5011251;28;20657;-53
2023/09/04 12:36:09;;;;;;;2.15;1.45;;;23.80;99.90;;;;;;5001852;28;20244;-52
2023/09/04 12:38:36;;;;;;;2.67;1.30;;;23.90;99.90;;;;;;5022341;28;20196;-48
2023/09/04 12:41:04;;;;;;;2.17;1.00;;;24.10;99.90;;;;;;5008153;28;20211;-51
2023/09/04 12:43:31;;;;;;;2.95;1.30;;;24.10;99.90;;;;;;5014543;28;20222;-52
2023/09/04 12:45:58;;;;;;;2.38;1.40;;;24.20;99.90;;;;;;4991400;28;20219;-52
2023/09/04 12:48:26;;;;;;;3.10;1.30;;;24.30;99.90;;;;;;5014147;28;20211;-50
2023/09/04 12:50:53;;;;;;;1.77;1.33;;;24.20;99.40;;;;;;5004557;28;20277;-51